Aérodrome :
LOGIN :

S'inscrire | Disclaimer

   EN    FR    IT 

 










Légende :    VFR   VFR Marginal   IFR   IFR Intensif   IFR Très Intensif
Visi : 
Plafond : 
>= 8 km
>= 3000ft
5 à 8 km
1000 à 3000 ft
1500m à 5 km
500 à 1000 ft
800 à 1500m
200 à 500 ft
< 800m
< 200 ft
Symboles :   Orages  Brouillard  Fortes neiges  Fortes précipitations  Vent > 20 kt
SIGMETs :   Divers  Orages  Givrage  Turbulence  Onde Orograph.  Cendres Volcan.






- Altitude de l'aérodrome : 195 ft


LFMY - Salon de Provence

DERNIER METAR :
  • 190430Z AUTO 34008KT CAVOK 06/01 Q1010

METARs EXPIRÉS :
  • 190400Z AUTO 33010KT 300V360 CAVOK 06/01 Q1010
  • 190330Z AUTO 34012KT CAVOK 06/01 Q1010
  • 190300Z AUTO 34012KT CAVOK 06/01 Q1010
  • 190230Z AUTO 34015KT CAVOK 06/01 Q1010
  • 190200Z AUTO 34013KT CAVOK 06/01 Q1010

TAF TAF LFMY
Valide du 18 à 15h jusqu'au 19 à 15h UTC


181400Z 1815/1915 34012KT CAVOK
TEMPO 1818/1906 RA
TEMPO 1909/1913 35015G25KT



MET'MAP, la Météo Aéronautique d'un coup d'oeil ! - Copyright ORBIFLY Décembre 2007 - Disclaimer

ORBIFLY MET'MAP TEAM :

Programmation & Développement : Alexandra Zaïnal
Conception & Développement : Baudouin d'Aumeries
Co-Programmation & Développement : Marc-Olivier Méhu
Soutien technique & logistique : Manuel Goepfert

Contact : metmap@orbifly.com




SOURCES & CREDITS :

   NOAA